Flight Track Log - Related Links

Times and Time Zones

All times are in EDT time to prevent confusion due to time zone crossing. See the ASQ6041 flight status page for this flight to view local times or setup timezone preferences in your user account.

Time Position Orientation Groundspeed Altitude Reporting Facility
EDT Latitude Longitude Course Direction KTS MPH feet Rate Location/Type
Mon 03:58:52 PM 38.5822 -106.8592 49° Northeast 252 290 15,100  Level Denver Center
Mon 03:59:00 PM 38.6861 -106.7044 49° Northeast  Level FlightAware Approximate
Mon 03:59:54 PM 38.6314 -106.7925 47° Northeast 257 296 16,900  Level Denver Center
Mon 04:00:00 PM 38.7476 -106.6121 49° Northeast  Level FlightAware Approximate
Mon 04:00:56 PM 38.6886 -106.7150 47° Northeast 285 328 17,900  Level Denver Center
Mon 04:01:00 PM 38.8096 -106.5202 47° Northeast  Level FlightAware Approximate
Mon 04:01:58 PM 38.7658 -106.6631 28° Northeast 330 380 19,200  Level Denver Center
Mon 04:02:00 PM 38.8742 -106.4314 47° Northeast  Level FlightAware Approximate
Mon 04:03:00 PM 38.9414 -106.3500 North  Level FlightAware Approximate
Mon 04:03:00 PM 38.8586 -106.6717 356° North 332 382 20,600  Level Denver Center
Mon 04:04:00 PM 39.0061 -106.2660 49° Northeast  Level FlightAware Approximate
Mon 04:04:02 PM 38.9567 -106.6958 349° North 339 390 22,100  Level Denver Center
Mon 04:05:04 PM 39.0150 -106.6031 51° Northeast 339 390 23,700 1,415 Climbing Denver Center
Mon 04:06:05 PM 39.0303 -106.4861 80° East 344 396 25,000 634 Climbing Denver Center
Mon 04:07:07 PM 39.1231 -106.4008 35° Northeast 379 436 25,000 -48 Level Denver Center
Mon 04:08:09 PM 39.2072 -106.3169 38° Northeast 415 478 24,900 -242 Descending Denver Center
Mon 04:09:11 PM 39.2467 -106.1850 69° East 415 478 24,500 -871 Descending Denver Center
Mon 04:10:13 PM 39.2558 -106.0247 86° East 423 487 23,100 -1,306 Descending Denver Center
Mon 04:11:15 PM 39.2556 -105.8811 90° East 403 464 21,800 -1,452 Descending Denver Center
Mon 04:12:17 PM 39.2569 -105.7183 89° East 381 438 20,100 -871 Descending Denver Center
Mon 04:13:19 PM 39.2572 -105.5897 90° East 365 420 20,000 -49 Descending Denver Center
Mon 04:14:20 PM 39.2572 -105.4619 90° East 358 412 20,000 -390 Level Denver Center
Mon 04:15:22 PM 39.2817 -105.3439 75° East 334 384 19,200 -1,296 Descending Denver Center
Mon 04:16:25 PM 39.3728 -105.3022 19° North 346 398 17,300 -1,776 Descending Denver Center
Mon 04:17:27 PM 39.4656 -105.2575 20° North 354 407 15,500 -1,805 Descending Denver Center
Mon 04:18:28 PM 39.5661 -105.2211 16° North 348 400 13,600 -1,171 Descending Denver Center
Mon 04:19:30 PM 39.6508 -105.1831 19° North 323 372 13,100 -726 Descending Denver Center
Mon 04:20:32 PM 39.7206 -105.1483 21° North 255 293 12,100 -1,161 Descending Denver Center
Mon 04:21:34 PM 39.7872 -105.1164 20° North 253 291 10,700 -1,065 Descending Denver Center
Mon 04:22:36 PM 39.8136 -105.0364 67° East 239 275 9,900 -1,065 Descending Denver Center
Mon 04:23:38 PM 39.8294 -104.9544 76° East 220 253 8,500 -1,306 Descending Denver Center
Mon 04:24:40 PM 39.8417 -104.8783 78° East 216 249 7,200 -1,258 Descending Denver Center

Login

Don't have an account? Register now (free) for customized features, flight alerts, and more!